createdAt,value
2023-05-07T00:02:08.626Z,35.45
2023-05-07T00:04:38.749Z,28.05
2023-05-07T00:07:06.606Z,30.92
2023-05-07T00:09:33.650Z,28.75
2023-05-07T00:12:00.780Z,33.83
2023-05-07T00:14:27.727Z,33.70
2023-05-07T00:16:54.755Z,28.85
2023-05-07T00:19:21.788Z,29.27
2023-05-07T00:21:48.776Z,27.48
2023-05-07T00:24:15.644Z,27.63
2023-05-07T00:26:42.886Z,30.45
2023-05-07T00:29:09.808Z,33.72
2023-05-07T00:31:36.870Z,35.20
2023-05-07T00:34:04.039Z,26.67
2023-05-07T00:36:31.556Z,30.98
2023-05-07T00:39:01.159Z,31.00
2023-05-07T00:41:28.170Z,27.60
2023-05-07T00:43:55.068Z,31.13
2023-05-07T00:46:22.781Z,29.42
2023-05-07T00:48:51.851Z,31.42
2023-05-07T00:51:19.447Z,31.38
2023-05-07T00:53:47.076Z,32.80
2023-05-07T00:56:14.207Z,29.50
2023-05-07T00:58:41.884Z,28.02
2023-05-07T01:01:08.987Z,32.72
2023-05-07T01:03:36.284Z,28.60
2023-05-07T01:06:04.392Z,32.45
2023-05-07T01:08:32.765Z,29.90
2023-05-07T01:11:01.345Z,29.17
2023-05-07T01:13:29.372Z,27.85
2023-05-07T01:15:56.344Z,30.67
2023-05-07T01:18:23.380Z,27.77
2023-05-07T01:20:50.469Z,25.50
2023-05-07T01:23:18.631Z,29.55
2023-05-07T01:25:53.124Z,32.90
2023-05-07T01:28:21.120Z,36.50
2023-05-07T01:30:56.715Z,30.10
2023-05-07T01:33:25.887Z,31.88
2023-05-07T01:35:54.761Z,29.65
2023-05-07T01:38:25.607Z,31.17
2023-05-07T01:40:52.742Z,31.02
2023-05-07T01:43:20.495Z,29.90
2023-05-07T01:45:48.341Z,35.92
2023-05-07T01:48:16.287Z,35.17
2023-05-07T01:50:45.337Z,33.00
2023-05-07T01:53:12.387Z,30.02
2023-05-07T01:55:39.466Z,34.83
2023-05-07T01:58:06.452Z,28.10
2023-05-07T02:00:33.802Z,35.33
2023-05-07T02:03:00.908Z,38.60
2023-05-07T02:05:38.975Z,37.83
2023-05-07T02:08:12.854Z,35.90
2023-05-07T02:10:40.034Z,31.33
2023-05-07T02:13:07.798Z,35.38
2023-05-07T02:15:34.908Z,34.83
2023-05-07T02:18:08.858Z,32.65
2023-05-07T02:20:36.555Z,30.67
2023-05-07T02:23:03.620Z,32.03
2023-05-07T02:25:31.462Z,36.55
2023-05-07T02:27:59.437Z,36.70
2023-05-07T02:30:39.080Z,29.42
2023-05-07T02:33:07.368Z,33.83
2023-05-07T02:35:34.281Z,29.42
2023-05-07T02:38:01.412Z,29.38
2023-05-07T02:40:29.972Z,30.92
2023-05-07T02:42:56.934Z,30.20
2023-05-07T02:45:24.366Z,33.30
2023-05-07T02:47:53.968Z,34.85
2023-05-07T02:50:21.089Z,37.28
2023-05-07T02:52:48.773Z,32.00
2023-05-07T02:55:16.031Z,33.47
2023-05-07T02:57:42.917Z,32.00
2023-05-07T03:00:15.130Z,35.55
2023-05-07T03:02:48.324Z,36.88
2023-05-07T03:05:15.840Z,34.17
2023-05-07T03:07:46.202Z,32.47
2023-05-07T03:10:14.268Z,33.75
2023-05-07T03:12:41.478Z,33.25
2023-05-07T03:15:11.483Z,32.80
2023-05-07T03:17:38.525Z,30.50
2023-05-07T03:20:06.379Z,30.38
2023-05-07T03:22:33.572Z,32.03
2023-05-07T03:25:00.953Z,33.33
2023-05-07T03:27:28.051Z,34.38
2023-05-07T03:29:55.226Z,30.48
2023-05-07T03:32:22.418Z,31.58
2023-05-07T03:34:49.656Z,32.60
2023-05-07T03:37:16.898Z,26.27
2023-05-07T03:39:44.363Z,29.30
2023-05-07T03:42:11.625Z,29.45
2023-05-07T03:44:38.773Z,31.65
2023-05-07T03:47:05.918Z,29.33
2023-05-07T03:49:33.151Z,27.35
2023-05-07T03:52:00.835Z,31.30
2023-05-07T03:54:28.023Z,31.30
2023-05-07T03:56:55.109Z,28.25
2023-05-07T03:59:23.640Z,31.83
2023-05-07T04:01:51.202Z,29.02
2023-05-07T04:04:21.321Z,28.98
2023-05-07T04:06:48.947Z,33.70
2023-05-07T04:09:16.305Z,25.55
2023-05-07T04:11:43.421Z,27.67
2023-05-07T04:14:11.596Z,28.52
2023-05-07T04:16:38.716Z,28.70
2023-05-07T04:19:06.773Z,27.98
2023-05-07T04:21:34.282Z,25.52
2023-05-07T04:24:01.497Z,25.42
2023-05-07T04:26:29.539Z,27.48
2023-05-07T04:28:56.674Z,27.20
2023-05-07T04:31:23.712Z,24.67
2023-05-07T04:33:54.759Z,24.92
2023-05-07T04:36:22.456Z,26.92
2023-05-07T04:38:59.022Z,29.60
2023-05-07T04:41:26.039Z,23.85
2023-05-07T04:43:53.012Z,26.98
2023-05-07T04:46:23.055Z,23.58
2023-05-07T04:48:50.443Z,27.50
2023-05-07T04:51:17.327Z,28.52
2023-05-07T04:53:44.594Z,27.83
2023-05-07T04:56:11.960Z,32.15
2023-05-07T04:58:42.268Z,25.73
2023-05-07T05:01:10.568Z,25.73
2023-05-07T05:03:40.517Z,30.10
2023-05-07T05:06:08.455Z,28.40
2023-05-07T05:08:35.706Z,29.15
2023-05-07T05:11:04.285Z,29.60
2023-05-07T05:13:33.540Z,26.50
2023-05-07T05:16:03.887Z,25.65
2023-05-07T05:18:33.931Z,28.00
2023-05-07T05:21:00.852Z,22.55
2023-05-07T05:23:28.692Z,22.90
2023-05-07T05:25:59.509Z,26.08
2023-05-07T05:28:29.660Z,24.52
2023-05-07T05:30:57.281Z,23.17
2023-05-07T05:33:26.268Z,27.50
2023-05-07T05:35:55.670Z,25.42
2023-05-07T05:38:22.684Z,25.05
2023-05-07T05:40:50.723Z,21.98
2023-05-07T05:43:18.816Z,21.35
2023-05-07T05:45:45.813Z,25.15
2023-05-07T05:48:12.888Z,20.85
2023-05-07T05:50:39.993Z,19.58
2023-05-07T05:53:07.724Z,18.80
2023-05-07T05:55:35.458Z,22.48
2023-05-07T05:58:02.639Z,21.52
2023-05-07T06:00:31.504Z,21.63
2023-05-07T06:03:03.623Z,23.45
2023-05-07T06:05:30.857Z,19.40
2023-05-07T06:07:58.143Z,22.23
2023-05-07T06:10:28.227Z,22.15
2023-05-07T06:12:55.698Z,23.92
2023-05-07T06:15:23.334Z,23.40
2023-05-07T06:17:51.111Z,20.75
2023-05-07T06:20:18.390Z,25.27
2023-05-07T06:22:45.758Z,20.85
2023-05-07T06:25:14.287Z,19.08
2023-05-07T06:27:42.898Z,20.67
2023-05-07T06:30:10.430Z,20.67
2023-05-07T06:32:38.123Z,23.20
2023-05-07T06:35:06.182Z,20.63
2023-05-07T06:37:36.071Z,21.13
2023-05-07T06:40:07.117Z,24.40
2023-05-07T06:42:39.523Z,24.15
2023-05-07T06:45:26.240Z,24.05
2023-05-07T06:47:55.092Z,22.13
2023-05-07T06:50:23.692Z,20.98
2023-05-07T06:52:53.437Z,23.15
2023-05-07T06:55:20.989Z,24.08
2023-05-07T06:57:47.955Z,19.23
2023-05-07T07:00:16.797Z,21.42
2023-05-07T07:02:49.377Z,26.92
2023-05-07T07:05:19.018Z,22.40
2023-05-07T07:07:53.454Z,19.63
2023-05-07T07:10:21.607Z,20.48
2023-05-07T07:12:50.126Z,20.35
2023-05-07T07:15:17.503Z,15.85
2023-05-07T07:17:45.478Z,23.05
2023-05-07T07:20:12.860Z,17.98
2023-05-07T07:22:41.180Z,16.90
2023-05-07T07:25:10.925Z,18.60
2023-05-07T07:27:40.917Z,18.08
2023-05-07T07:30:09.546Z,15.50
2023-05-07T07:32:39.469Z,17.25
2023-05-07T07:35:07.426Z,14.85
2023-05-07T07:37:34.974Z,18.58
2023-05-07T07:40:02.010Z,17.83
2023-05-07T07:42:30.335Z,13.15
2023-05-07T07:44:58.626Z,16.08
2023-05-07T07:47:28.512Z,15.88
2023-05-07T07:49:55.587Z,17.88
2023-05-07T07:52:22.562Z,13.45
2023-05-07T07:54:49.656Z,16.88
2023-05-07T07:57:17.129Z,14.40
2023-05-07T07:59:44.496Z,12.90
2023-05-07T08:02:13.229Z,15.07
2023-05-07T08:04:40.509Z,14.73
2023-05-07T08:07:08.936Z,17.83
2023-05-07T08:09:40.515Z,24.55
2023-05-07T08:12:08.701Z,18.38
2023-05-07T08:14:37.525Z,18.45
2023-05-07T08:17:06.471Z,15.95
2023-05-07T08:19:34.391Z,23.83
2023-05-07T08:22:05.443Z,15.82
2023-05-07T08:24:34.301Z,15.70
2023-05-07T08:27:01.487Z,18.00
2023-05-07T08:29:28.687Z,13.13
2023-05-07T08:31:55.797Z,15.75
2023-05-07T08:34:23.837Z,15.35
2023-05-07T08:36:53.088Z,20.92
2023-05-07T08:39:23.432Z,17.10
2023-05-07T08:41:57.951Z,18.58
2023-05-07T08:44:28.574Z,15.50
2023-05-07T08:46:59.250Z,22.73
2023-05-07T08:49:28.712Z,20.77
2023-05-07T08:51:56.800Z,20.60
2023-05-07T08:54:25.892Z,17.42
2023-05-07T08:56:52.927Z,18.95
2023-05-07T08:59:20.562Z,21.15
2023-05-07T09:01:48.207Z,18.50
2023-05-07T09:04:16.220Z,21.52
2023-05-07T09:06:44.535Z,19.75
2023-05-07T09:09:18.624Z,16.83
2023-05-07T09:11:46.091Z,18.77
2023-05-07T09:14:15.662Z,19.98
2023-05-07T09:16:44.950Z,20.88
2023-05-07T09:19:12.527Z,19.55
2023-05-07T09:21:44.367Z,19.67
2023-05-07T09:24:13.067Z,18.75
2023-05-07T09:26:42.310Z,21.80
2023-05-07T09:29:11.999Z,18.98
2023-05-07T09:31:40.276Z,16.08
2023-05-07T09:34:10.587Z,18.73
2023-05-07T09:36:41.054Z,21.33
2023-05-07T09:39:08.544Z,22.48
2023-05-07T09:41:45.386Z,17.85
2023-05-07T09:44:22.941Z,20.75
2023-05-07T09:46:56.347Z,22.23
2023-05-07T09:49:40.069Z,19.92
2023-05-07T09:52:11.619Z,20.83
2023-05-07T09:54:46.201Z,17.90
2023-05-07T09:57:16.649Z,20.50
2023-05-07T09:59:48.055Z,21.77
2023-05-07T10:02:20.393Z,20.15
2023-05-07T10:04:52.043Z,20.75
2023-05-07T10:07:25.328Z,22.45
2023-05-07T10:09:57.322Z,21.17
2023-05-07T10:12:38.721Z,24.17
2023-05-07T10:15:12.766Z,26.52
2023-05-07T10:17:43.465Z,19.20
2023-05-07T10:20:12.488Z,24.85
2023-05-07T10:22:50.049Z,25.83
2023-05-07T10:25:26.676Z,20.00
2023-05-07T10:27:56.641Z,20.27
2023-05-07T10:31:04.964Z,19.70
2023-05-07T10:33:39.982Z,22.02
2023-05-07T10:36:09.011Z,25.48
2023-05-07T10:38:37.137Z,22.90
2023-05-07T10:41:06.671Z,21.23
2023-05-07T10:43:44.740Z,20.88
2023-05-07T10:46:23.471Z,23.80
2023-05-07T10:49:09.161Z,21.38
2023-05-07T10:51:42.380Z,17.83
2023-05-07T10:54:20.947Z,21.00
2023-05-07T10:57:33.311Z,23.75
2023-05-07T11:00:38.087Z,21.70
2023-05-07T11:03:08.874Z,18.77
2023-05-07T11:05:50.113Z,17.20
2023-05-07T11:08:23.594Z,21.33
2023-05-07T11:10:59.494Z,15.63
2023-05-07T11:13:46.550Z,21.80
2023-05-07T11:16:31.126Z,25.15
2023-05-07T11:19:07.540Z,21.42
2023-05-07T11:21:43.740Z,20.48
2023-05-07T11:24:26.811Z,19.88
2023-05-07T11:26:59.499Z,22.95
2023-05-07T11:29:30.019Z,19.15
2023-05-07T11:32:07.214Z,23.30
2023-05-07T11:34:42.035Z,20.90
2023-05-07T11:37:10.406Z,16.90
2023-05-07T11:39:59.328Z,18.55
2023-05-07T11:42:32.173Z,18.15
2023-05-07T11:45:00.239Z,19.67
2023-05-07T11:47:27.759Z,20.27
2023-05-07T11:49:56.238Z,18.80
2023-05-07T11:52:25.989Z,25.58
2023-05-07T11:54:58.349Z,22.27
2023-05-07T11:57:26.063Z,17.38
2023-05-07T12:00:00.714Z,24.02
2023-05-07T12:02:29.432Z,24.00
2023-05-07T12:04:56.668Z,22.70
2023-05-07T12:07:25.394Z,23.05
2023-05-07T12:09:53.455Z,25.90
2023-05-07T12:12:20.594Z,26.20
2023-05-07T12:14:47.823Z,23.65
2023-05-07T12:17:16.407Z,25.63
2023-05-07T12:19:45.594Z,26.02
2023-05-07T12:22:14.050Z,26.48
2023-05-07T12:25:00.254Z,21.10
2023-05-07T12:27:27.578Z,20.92
2023-05-07T12:29:54.766Z,22.02
2023-05-07T12:32:23.282Z,21.58
2023-05-07T12:34:53.721Z,21.23
2023-05-07T12:37:26.354Z,24.45
2023-05-07T12:40:09.938Z,29.15
2023-05-07T12:42:38.417Z,24.90
2023-05-07T12:45:13.221Z,21.00
2023-05-07T12:50:08.326Z,22.50
2023-05-07T12:52:35.898Z,22.20
2023-05-07T12:55:07.792Z,22.70
2023-05-07T12:57:43.185Z,22.67
2023-05-07T13:00:10.808Z,25.17
2023-05-07T13:02:42.462Z,24.42
2023-05-07T13:05:10.204Z,22.88
2023-05-07T13:07:38.554Z,23.70
2023-05-07T13:10:06.324Z,19.60
2023-05-07T13:12:33.725Z,24.80
2023-05-07T13:15:00.718Z,18.17
2023-05-07T13:17:27.674Z,25.55
2023-05-07T13:19:54.782Z,23.73
2023-05-07T13:22:21.842Z,22.17
2023-05-07T13:24:48.791Z,22.48
2023-05-07T13:27:16.532Z,25.90
2023-05-07T13:29:43.517Z,20.77
2023-05-07T13:32:10.552Z,23.83
2023-05-07T13:34:38.154Z,29.17
2023-05-07T13:37:05.119Z,22.13
2023-05-07T13:39:32.646Z,23.23
2023-05-07T13:41:59.518Z,21.10
2023-05-07T13:44:26.997Z,21.85
2023-05-07T13:46:54.038Z,21.50
2023-05-07T13:49:21.063Z,26.48
2023-05-07T13:51:47.942Z,20.00
2023-05-07T13:54:14.896Z,22.52
2023-05-07T13:56:41.842Z,14.80
2023-05-07T13:59:09.663Z,16.13
2023-05-07T14:01:36.603Z,14.15
2023-05-07T14:04:03.704Z,23.98
2023-05-07T14:06:31.320Z,20.63
2023-05-07T14:08:59.202Z,22.00
2023-05-07T14:11:26.160Z,26.52
2023-05-07T14:13:53.092Z,21.48
2023-05-07T14:16:20.043Z,20.25
2023-05-07T14:18:47.147Z,21.73
2023-05-07T14:21:14.238Z,19.95
2023-05-07T14:23:41.320Z,21.05
2023-05-07T14:26:08.191Z,17.10
2023-05-07T14:28:35.287Z,17.90
2023-05-07T14:31:02.239Z,14.85
2023-05-07T14:33:29.173Z,20.63
2023-05-07T14:35:56.339Z,19.52
2023-05-07T14:38:23.293Z,14.75
2023-05-07T14:40:50.392Z,15.88
2023-05-07T14:43:17.358Z,12.32
2023-05-07T14:45:44.224Z,14.75
2023-05-07T14:48:16.077Z,23.10
2023-05-07T14:50:43.945Z,18.15
2023-05-07T14:53:10.854Z,17.58
2023-05-07T14:55:37.821Z,16.33
2023-05-07T14:58:05.105Z,20.20
2023-05-07T15:00:34.501Z,16.30
2023-05-07T15:03:09.103Z,21.48
2023-05-07T15:05:36.889Z,20.17
2023-05-07T15:08:03.950Z,19.58
2023-05-07T15:10:30.958Z,20.90
2023-05-07T15:12:57.920Z,27.63
2023-05-07T15:15:25.110Z,24.60
2023-05-07T15:17:53.471Z,20.98
2023-05-07T15:20:20.466Z,26.15
2023-05-07T15:22:47.581Z,22.33
2023-05-07T15:25:14.908Z,18.75
2023-05-07T15:27:42.210Z,18.38
2023-05-07T15:30:11.378Z,17.17
2023-05-07T15:32:39.379Z,17.77
2023-05-07T15:35:07.577Z,16.58
2023-05-07T15:37:34.859Z,15.40
2023-05-07T15:40:03.524Z,19.05
2023-05-07T15:42:30.804Z,20.35
2023-05-07T15:44:57.817Z,19.30
2023-05-07T15:47:24.714Z,16.92
2023-05-07T15:49:51.704Z,20.48
2023-05-07T15:52:18.814Z,22.77
2023-05-07T15:54:45.837Z,22.85
2023-05-07T15:57:12.752Z,24.67
2023-05-07T15:59:40.014Z,24.05
2023-05-07T16:02:08.363Z,26.90
2023-05-07T16:04:35.792Z,23.15
2023-05-07T16:07:02.654Z,23.23
2023-05-07T16:09:29.693Z,24.10
2023-05-07T16:11:56.609Z,18.75
2023-05-07T16:14:24.340Z,24.05
2023-05-07T16:16:52.054Z,20.98
2023-05-07T16:19:20.600Z,26.25
2023-05-07T16:21:47.662Z,21.98
2023-05-07T16:24:15.481Z,28.63
2023-05-07T16:26:42.483Z,19.55
2023-05-07T16:29:09.443Z,20.83
2023-05-07T16:31:36.944Z,23.30
2023-05-07T16:34:04.653Z,26.42
2023-05-07T16:36:31.745Z,20.92
2023-05-07T16:38:58.679Z,23.35
2023-05-07T16:41:26.273Z,19.20
2023-05-07T16:43:53.250Z,22.70
2023-05-07T16:46:20.216Z,19.50
2023-05-07T16:48:47.418Z,27.90
2023-05-07T16:51:14.453Z,28.48
2023-05-07T16:53:41.640Z,23.77
2023-05-07T16:56:08.643Z,24.83
2023-05-07T16:58:35.762Z,22.67
2023-05-07T17:01:02.817Z,24.42
2023-05-07T17:03:32.147Z,26.30
2023-05-07T17:05:59.399Z,28.13
2023-05-07T17:08:26.395Z,25.35
2023-05-07T17:10:53.580Z,25.77
2023-05-07T17:13:20.736Z,28.05
2023-05-07T17:15:48.046Z,23.27
2023-05-07T17:18:15.474Z,30.40
2023-05-07T17:20:42.494Z,25.60
2023-05-07T17:23:09.397Z,25.27
2023-05-07T17:25:37.153Z,29.08
2023-05-07T17:28:04.236Z,24.02
2023-05-07T17:30:31.268Z,23.48
2023-05-07T17:33:06.248Z,25.48
2023-05-07T17:35:40.176Z,25.42
2023-05-07T17:38:07.214Z,26.50
2023-05-07T17:40:34.622Z,28.85
2023-05-07T17:43:02.044Z,21.58
2023-05-07T17:45:29.006Z,20.33
2023-05-07T17:47:55.949Z,23.52
2023-05-07T17:50:23.305Z,28.58
2023-05-07T17:52:50.371Z,28.00
2023-05-07T17:55:17.517Z,25.75
2023-05-07T17:57:44.466Z,32.95
2023-05-07T18:00:12.342Z,35.33
2023-05-07T18:02:40.731Z,39.45
2023-05-07T18:05:09.306Z,32.92
2023-05-07T18:07:37.192Z,31.40
2023-05-07T18:10:04.732Z,28.50
2023-05-07T18:12:31.753Z,41.75
2023-05-07T18:14:58.697Z,31.73
2023-05-07T18:17:26.487Z,38.38
2023-05-07T18:19:55.169Z,37.08
2023-05-07T18:22:22.632Z,36.20
2023-05-07T18:24:50.611Z,38.55
2023-05-07T18:27:17.887Z,34.15
2023-05-07T18:29:44.854Z,39.20
2023-05-07T18:32:12.142Z,36.88
2023-05-07T18:34:39.845Z,41.50
2023-05-07T18:37:06.700Z,40.17
2023-05-07T18:39:35.866Z,37.10
2023-05-07T18:42:05.239Z,46.65
2023-05-07T18:44:33.189Z,47.28
2023-05-07T18:47:00.071Z,44.92
2023-05-07T18:49:27.051Z,50.63
2023-05-07T18:51:53.934Z,45.05
2023-05-07T18:54:20.912Z,38.63
2023-05-07T18:56:47.789Z,44.28
2023-05-07T18:59:14.874Z,42.67
2023-05-07T19:01:42.006Z,44.75
2023-05-07T19:04:09.417Z,40.75
2023-05-07T19:06:36.388Z,42.17
2023-05-07T19:09:05.126Z,41.13
2023-05-07T19:11:32.181Z,45.55
2023-05-07T19:13:59.901Z,45.28
2023-05-07T19:16:27.631Z,43.42
2023-05-07T19:18:54.641Z,60.10
2023-05-07T19:21:21.506Z,48.67
2023-05-07T19:23:51.124Z,47.90
2023-05-07T19:26:19.786Z,53.30
2023-05-07T19:28:51.880Z,53.22
2023-05-07T19:31:27.007Z,48.38
2023-05-07T19:33:54.678Z,54.10
2023-05-07T19:36:21.557Z,43.83
2023-05-07T19:38:50.088Z,58.20
2023-05-07T19:41:16.940Z,43.90
2023-05-07T19:43:43.867Z,44.65
2023-05-07T19:46:11.170Z,46.90
2023-05-07T19:48:38.180Z,57.30
2023-05-07T19:51:05.094Z,57.83
2023-05-07T19:53:32.200Z,46.15
2023-05-07T19:56:10.094Z,53.40
2023-05-07T19:58:37.706Z,54.33
2023-05-07T20:01:06.410Z,48.65
2023-05-07T20:03:34.513Z,54.40
2023-05-07T20:06:02.281Z,55.38
2023-05-07T20:08:29.275Z,53.95
2023-05-07T20:10:58.973Z,56.72
2023-05-07T20:13:29.410Z,61.25
2023-05-07T20:16:00.511Z,59.38
2023-05-07T20:18:28.670Z,49.40
2023-05-07T20:20:56.440Z,56.45
2023-05-07T20:23:23.860Z,60.60
2023-05-07T20:25:51.034Z,59.80
2023-05-07T20:28:18.050Z,59.10
2023-05-07T20:30:44.958Z,58.92
2023-05-07T20:33:12.604Z,61.10
2023-05-07T20:35:40.834Z,55.33
2023-05-07T20:38:07.800Z,57.55
2023-05-07T20:40:37.680Z,61.45
2023-05-07T20:43:06.234Z,57.20
2023-05-07T20:45:33.361Z,65.35
2023-05-07T20:48:00.977Z,63.85
2023-05-07T20:50:28.196Z,58.60
2023-05-07T20:52:55.163Z,58.10
2023-05-07T20:55:22.251Z,62.97
2023-05-07T20:57:49.176Z,54.55
2023-05-07T21:00:17.510Z,57.83
2023-05-07T21:02:47.627Z,58.28
2023-05-07T21:05:14.586Z,60.95
2023-05-07T21:07:41.498Z,62.75
2023-05-07T21:10:09.013Z,67.18
2023-05-07T21:12:35.974Z,68.85
2023-05-07T21:15:03.113Z,73.10
2023-05-07T21:17:31.812Z,71.38
2023-05-07T21:19:59.155Z,73.80
2023-05-07T21:22:26.004Z,65.90
2023-05-07T21:24:52.953Z,72.20
2023-05-07T21:27:19.867Z,69.90
2023-05-07T21:29:46.980Z,71.93
2023-05-07T21:32:13.982Z,69.93
2023-05-07T21:34:40.905Z,75.13
2023-05-07T21:37:07.906Z,67.57
2023-05-07T21:39:34.919Z,69.88
2023-05-07T21:42:01.805Z,68.55
2023-05-07T21:44:29.857Z,69.13
2023-05-07T21:46:57.027Z,68.80
2023-05-07T21:49:24.030Z,66.47
2023-05-07T21:51:50.918Z,65.63
2023-05-07T21:54:18.086Z,66.85
2023-05-07T21:56:45.588Z,61.60
2023-05-07T21:59:12.641Z,61.60
2023-05-07T22:01:39.618Z,64.63
2023-05-07T22:04:06.830Z,66.50
2023-05-07T22:06:33.777Z,82.95
2023-05-07T22:09:00.789Z,83.25
2023-05-07T22:11:27.882Z,74.28
2023-05-07T22:13:54.808Z,74.85
2023-05-07T22:16:21.871Z,74.70
2023-05-07T22:18:49.685Z,86.72
2023-05-07T22:21:16.689Z,88.30
2023-05-07T22:23:43.655Z,92.63
2023-05-07T22:26:12.428Z,85.32
2023-05-07T22:28:40.540Z,83.00
2023-05-07T22:31:07.552Z,90.13
2023-05-07T22:33:35.081Z,85.53
2023-05-07T22:36:01.988Z,84.93
2023-05-07T22:38:29.113Z,87.60
2023-05-07T22:40:56.136Z,92.75
2023-05-07T22:43:23.033Z,99.47
2023-05-07T22:45:49.997Z,98.95
2023-05-07T22:48:17.026Z,99.38
2023-05-07T22:50:43.876Z,106.63
2023-05-07T22:53:10.773Z,112.80
2023-05-07T22:55:37.777Z,114.60
2023-05-07T22:58:04.760Z,109.88
2023-05-07T23:20:27.678Z,87.95
2023-05-07T23:22:55.215Z,81.30
2023-05-07T23:25:22.130Z,74.45
2023-05-07T23:27:51.210Z,81.65
2023-05-07T23:30:18.145Z,81.03
2023-05-07T23:32:45.148Z,81.07
2023-05-07T23:35:12.331Z,77.18
2023-05-07T23:37:39.356Z,71.50
2023-05-07T23:40:06.882Z,72.38
2023-05-07T23:42:33.956Z,72.68
2023-05-07T23:45:01.160Z,70.43
2023-05-07T23:47:28.107Z,65.05
2023-05-07T23:49:55.006Z,67.15
2023-05-07T23:52:21.919Z,64.47
2023-05-07T23:54:48.755Z,63.15
2023-05-07T23:57:16.414Z,60.78
2023-05-07T23:59:43.252Z,69.43
